Time;durP1;ratioP1;P1;durP2;ratioP2;P2;SDS_P1;SDS_P2;PMS_P1;PMS_P2;Temp;Humidity;BMP_temperature;BMP_pressure;BME280_temperature;BME280_humidity;BME280_pressure;Samples;Min_cycle;Max_cycle;Signal;HPM_P1;HPM_P2
2021/10/18 00:01:40;;;;;;;8.13;5.40;;;9.80;99.90;;;;;;5033113;28;20030;-52
2021/10/18 00:04:05;;;;;;;8.63;5.22;;;9.80;99.90;;;;;;5033105;28;20079;-50
2021/10/18 00:06:32;;;;;;;10.00;5.60;;;9.80;99.90;;;;;;5033081;28;20469;-49
2021/10/18 00:08:58;;;;;;;11.68;5.57;;;9.80;99.90;;;;;;5032968;28;20029;-48
2021/10/18 00:11:24;;;;;;;10.68;5.60;;;9.80;99.90;;;;;;5031568;28;20021;-51
2021/10/18 00:13:49;;;;;;;10.20;5.25;;;9.80;99.90;;;;;;5032992;28;20087;-47
2021/10/18 00:16:15;;;;;;;11.68;6.20;;;9.80;99.90;;;;;;5032921;28;20029;-47
2021/10/18 00:18:40;;;;;;;7.47;5.28;;;9.80;99.90;;;;;;5032952;28;20529;-47
2021/10/18 00:21:06;;;;;;;8.93;5.50;;;9.80;99.90;;;;;;5032925;28;20032;-52
2021/10/18 00:23:31;;;;;;;8.45;4.75;;;9.80;99.90;;;;;;5032884;28;20483;-49
2021/10/18 00:25:57;;;;;;;15.95;6.65;;;9.80;99.90;;;;;;5031503;28;20127;-49
2021/10/18 00:28:22;;;;;;;10.73;5.55;;;9.80;99.90;;;;;;5032730;28;20034;-49
2021/10/18 00:30:48;;;;;;;12.32;6.60;;;9.80;99.90;;;;;;5032838;28;20034;-48
2021/10/18 00:33:14;;;;;;;9.85;5.88;;;9.80;99.90;;;;;;5032719;28;20425;-48
2021/10/18 00:35:40;;;;;;;12.30;5.85;;;9.80;99.90;;;;;;5032735;28;20112;-52
2021/10/18 00:38:05;;;;;;;10.70;6.28;;;9.80;99.90;;;;;;5036021;28;20033;-49
2021/10/18 00:40:31;;;;;;;12.00;6.30;;;9.80;99.90;;;;;;5035514;28;20435;-47
2021/10/18 00:42:56;;;;;;;10.25;5.22;;;9.80;99.90;;;;;;5036773;28;20025;-47
2021/10/18 00:45:22;;;;;;;13.32;6.38;;;9.80;99.90;;;;;;5036675;28;20026;-53
2021/10/18 00:47:48;;;;;;;14.02;5.70;;;9.80;99.90;;;;;;5036721;28;20083;-55
2021/10/18 00:50:14;;;;;;;6.47;4.53;;;9.80;99.90;;;;;;5036529;28;20072;-47
2021/10/18 00:52:40;;;;;;;11.73;6.53;;;9.80;99.90;;;;;;5036641;28;20030;-50
2021/10/18 00:55:07;;;;;;;10.18;5.88;;;9.80;99.90;;;;;;5035252;28;20025;-48
2021/10/18 00:57:33;;;;;;;15.25;6.55;;;9.80;99.90;;;;;;5036469;28;20461;-49
2021/10/18 00:59:59;;;;;;;9.00;5.07;;;9.80;99.90;;;;;;5036536;28;20064;-49
2021/10/18 01:02:25;;;;;;;14.15;6.53;;;9.80;99.90;;;;;;5035184;28;20066;-46
2021/10/18 01:04:51;;;;;;;10.95;6.13;;;9.80;99.90;;;;;;5036427;28;20096;-49
2021/10/18 01:07:17;;;;;;;9.45;5.63;;;9.80;99.90;;;;;;5036142;28;20046;-52
2021/10/18 01:09:43;;;;;;;10.05;6.13;;;9.80;99.90;;;;;;5034873;28;20035;-48
2021/10/18 01:12:09;;;;;;;12.27;5.93;;;9.80;99.90;;;;;;5036206;28;20021;-48
2021/10/18 01:14:35;;;;;;;13.20;6.68;;;9.80;99.90;;;;;;5036228;28;20068;-49
2021/10/18 01:17:01;;;;;;;7.47;5.30;;;9.80;99.90;;;;;;5036167;28;20029;-48
2021/10/18 01:19:26;;;;;;;14.73;8.35;;;9.80;99.90;;;;;;5036088;28;20026;-46
2021/10/18 01:21:58;;;;;;;8.82;5.72;;;9.80;99.90;;;;;;5036118;28;20104;-49
2021/10/18 01:24:24;;;;;;;14.93;6.20;;;9.80;99.90;;;;;;5035901;28;20456;-49
2021/10/18 01:26:50;;;;;;;11.00;5.95;;;9.80;99.90;;;;;;5034607;28;20129;-48
2021/10/18 01:29:15;;;;;;;8.80;6.00;;;9.80;99.90;;;;;;5035870;28;20112;-51
2021/10/18 01:31:41;;;;;;;9.82;6.45;;;9.80;99.90;;;;;;5035961;28;20406;-49
2021/10/18 01:34:07;;;;;;;11.05;6.40;;;9.80;99.90;;;;;;5035799;28;20036;-47
2021/10/18 01:36:33;;;;;;;12.63;7.35;;;9.80;99.90;;;;;;5035840;28;20029;-50
2021/10/18 01:38:59;;;;;;;8.65;5.50;;;9.80;99.90;;;;;;5035670;28;20057;-49
2021/10/18 01:41:24;;;;;;;9.70;6.00;;;9.80;99.90;;;;;;5034478;28;20068;-50
2021/10/18 01:43:50;;;;;;;10.63;7.03;;;9.80;99.90;;;;;;5035685;28;20061;-49
2021/10/18 01:46:16;;;;;;;11.02;6.20;;;9.80;99.90;;;;;;5035622;28;20536;-49
2021/10/18 01:48:41;;;;;;;12.30;6.57;;;9.80;99.90;;;;;;5034654;28;20112;-49
2021/10/18 01:51:08;;;;;;;14.60;6.88;;;9.80;99.90;;;;;;5035544;28;20037;-51
2021/10/18 01:53:34;;;;;;;9.75;6.28;;;9.80;99.90;;;;;;5035357;28;20669;-47
2021/10/18 01:55:59;;;;;;;13.20;6.93;;;9.80;99.90;;;;;;5034196;28;20109;-49
2021/10/18 01:58:25;;;;;;;10.15;6.47;;;9.80;99.90;;;;;;5035245;28;20048;-50
2021/10/18 02:00:50;;;;;;;10.52;5.85;;;9.80;99.90;;;;;;5035341;28;20055;-52
2021/10/18 02:03:16;;;;;;;9.73;6.00;;;9.80;99.90;;;;;;5035284;28;20096;-49
2021/10/18 02:05:41;;;;;;;11.63;6.57;;;9.80;99.90;;;;;;5035375;28;20026;-50
2021/10/18 02:08:07;;;;;;;9.48;5.85;;;9.80;99.90;;;;;;5035064;28;20124;-52
2021/10/18 02:10:32;;;;;;;9.85;6.57;;;9.80;99.90;;;;;;5033772;28;20044;-48
2021/10/18 02:12:58;;;;;;;9.75;5.90;;;9.80;99.90;;;;;;5035178;28;20017;-48
2021/10/18 02:15:23;;;;;;;9.73;5.97;;;9.80;99.90;;;;;;5035052;28;20385;-49
2021/10/18 02:17:49;;;;;;;9.20;6.05;;;9.80;99.90;;;;;;5035012;28;20029;-52
2021/10/18 02:20:16;;;;;;;12.90;6.50;;;9.80;99.90;;;;;;5034985;28;20087;-53
2021/10/18 02:22:42;;;;;;;10.18;6.57;;;9.80;99.90;;;;;;5035025;28;20428;-53
2021/10/18 02:25:10;;;;;;;9.13;5.93;;;9.80;99.90;;;;;;5033489;28;20026;-50
2021/10/18 02:27:35;;;;;;;9.82;6.07;;;9.80;99.90;;;;;;5034866;28;20060;-48
2021/10/18 02:30:04;;;;;;;10.02;6.60;;;9.80;99.90;;;;;;5034807;28;20185;-52
2021/10/18 02:32:30;;;;;;;10.68;6.60;;;9.80;99.90;;;;;;5034748;28;20067;-53
2021/10/18 02:34:55;;;;;;;10.73;6.53;;;9.80;99.90;;;;;;5034749;28;20025;-53
2021/10/18 02:37:21;;;;;;;14.23;8.15;;;9.80;99.90;;;;;;5034682;28;20047;-49
2021/10/18 02:39:46;;;;;;;10.57;5.82;;;9.80;99.90;;;;;;5033323;28;20026;-49
2021/10/18 02:42:12;;;;;;;11.02;6.05;;;9.80;99.90;;;;;;5034616;28;20033;-49
2021/10/18 02:44:37;;;;;;;9.05;6.57;;;9.80;99.90;;;;;;5034551;28;20026;-47
2021/10/18 02:47:03;;;;;;;12.25;7.20;;;9.80;99.90;;;;;;5034558;28;20437;-53
2021/10/18 02:49:28;;;;;;;12.98;8.05;;;9.80;99.90;;;;;;5034652;28;20480;-47
2021/10/18 02:51:54;;;;;;;12.55;7.82;;;9.80;99.90;;;;;;5034408;28;20369;-48
2021/10/18 02:54:19;;;;;;;11.15;7.13;;;9.80;99.90;;;;;;5034302;28;20026;-47
2021/10/18 02:56:45;;;;;;;14.95;8.23;;;9.80;99.90;;;;;;5033142;28;20500;-52
2021/10/18 02:59:10;;;;;;;14.55;7.75;;;9.80;99.90;;;;;;5034047;28;20483;-48
2021/10/18 03:01:36;;;;;;;16.63;9.05;;;9.80;99.90;;;;;;5034179;28;20044;-48
2021/10/18 03:04:01;;;;;;;10.38;7.43;;;9.80;99.90;;;;;;5034188;28;20045;-49
2021/10/18 03:06:27;;;;;;;17.00;9.32;;;9.80;99.90;;;;;;5034079;28;20049;-46
2021/10/18 03:08:56;;;;;;;17.85;9.43;;;9.90;99.90;;;;;;5033773;28;20050;-53
2021/10/18 03:11:21;;;;;;;14.25;9.57;;;9.90;99.90;;;;;;5032708;28;20025;-49
2021/10/18 03:13:47;;;;;;;11.93;8.18;;;9.90;99.90;;;;;;5033965;28;20117;-49
2021/10/18 03:16:12;;;;;;;14.65;8.60;;;9.90;99.90;;;;;;5034010;28;20021;-51
2021/10/18 03:18:38;;;;;;;13.13;8.55;;;9.90;99.90;;;;;;5032611;28;20037;-52
2021/10/18 03:21:04;;;;;;;14.00;9.35;;;9.90;99.90;;;;;;5033852;28;20021;-52
2021/10/18 03:23:29;;;;;;;19.38;11.18;;;9.90;99.90;;;;;;5033641;28;20067;-53
2021/10/18 03:25:55;;;;;;;16.88;9.48;;;9.90;99.90;;;;;;5032604;28;20029;-50
2021/10/18 03:28:21;;;;;;;16.35;10.27;;;9.80;99.90;;;;;;5033734;28;20404;-48
2021/10/18 03:30:46;;;;;;;16.45;9.23;;;9.90;99.90;;;;;;5033555;28;20510;-53
2021/10/18 03:33:12;;;;;;;14.48;9.20;;;9.90;99.90;;;;;;5032353;28;20548;-50
2021/10/18 03:35:37;;;;;;;18.50;10.50;;;9.90;99.90;;;;;;5033560;28;20376;-52
2021/10/18 03:38:03;;;;;;;17.30;9.07;;;9.80;99.90;;;;;;5033650;28;20100;-51
2021/10/18 03:40:28;;;;;;;16.98;9.18;;;9.80;99.90;;;;;;5032056;28;20030;-49
2021/10/18 03:42:54;;;;;;;13.93;9.02;;;9.80;99.90;;;;;;5033456;28;20029;-49
2021/10/18 03:45:20;;;;;;;14.57;8.70;;;9.80;99.90;;;;;;5033349;28;20034;-46
2021/10/18 03:47:45;;;;;;;13.15;8.30;;;9.80;99.90;;;;;;5033314;28;20033;-48
2021/10/18 03:50:11;;;;;;;12.50;8.75;;;9.80;99.90;;;;;;5033249;28;20028;-49
2021/10/18 03:52:36;;;;;;;11.63;7.28;;;9.80;99.90;;;;;;5033122;28;20369;-53
2021/10/18 03:55:03;;;;;;;11.18;7.13;;;9.80;99.90;;;;;;5032069;28;20393;-49
2021/10/18 03:57:28;;;;;;;12.75;7.20;;;9.80;99.90;;;;;;5033049;28;20067;-47
2021/10/18 03:59:54;;;;;;;14.95;7.70;;;9.80;99.90;;;;;;5033254;28;20526;-49
2021/10/18 04:02:19;;;;;;;10.32;7.50;;;9.80;99.90;;;;;;5033181;28;20056;-46
2021/10/18 04:04:45;;;;;;;10.57;6.70;;;9.80;99.90;;;;;;5033088;28;20041;-48
2021/10/18 04:07:10;;;;;;;12.10;7.10;;;9.80;99.90;;;;;;5032863;28;20049;-51
2021/10/18 04:09:38;;;;;;;12.32;6.82;;;9.80;99.90;;;;;;5031620;28;20037;-48
2021/10/18 04:12:04;;;;;;;12.82;7.15;;;9.80;99.90;;;;;;5031179;28;20021;-52
2021/10/18 04:14:30;;;;;;;12.05;7.13;;;9.70;99.90;;;;;;5033072;28;20075;-48
2021/10/18 04:16:55;;;;;;;12.80;7.07;;;9.70;99.90;;;;;;5032942;28;20024;-49
2021/10/18 04:19:21;;;;;;;9.23;6.15;;;9.70;99.90;;;;;;5032892;28;20381;-46
2021/10/18 04:21:46;;;;;;;9.50;6.18;;;9.70;99.90;;;;;;5032735;28;20435;-49
2021/10/18 04:24:12;;;;;;;9.10;5.88;;;9.70;99.90;;;;;;5032906;28;20075;-47
2021/10/18 04:26:37;;;;;;;8.80;6.18;;;9.70;99.90;;;;;;5031532;28;20041;-52
2021/10/18 04:29:05;;;;;;;11.43;5.85;;;9.70;99.90;;;;;;5032805;28;20033;-48
2021/10/18 04:31:30;;;;;;;9.70;6.03;;;9.70;99.90;;;;;;5032785;28;20029;-48
2021/10/18 04:33:56;;;;;;;10.30;5.80;;;9.70;99.90;;;;;;5032827;28;20021;-53
2021/10/18 04:36:25;;;;;;;8.30;5.20;;;9.70;99.90;;;;;;5032658;28;20045;-54
2021/10/18 04:38:51;;;;;;;8.25;5.75;;;9.70;99.90;;;;;;5032683;28;20029;-49
2021/10/18 04:41:17;;;;;;;9.20;5.13;;;9.60;99.90;;;;;;5031438;28;20029;-50
2021/10/18 04:43:42;;;;;;;8.05;4.80;;;9.60;99.90;;;;;;5032639;28;20025;-50
2021/10/18 04:46:08;;;;;;;10.00;5.43;;;9.70;99.90;;;;;;5032687;28;20452;-51
2021/10/18 04:48:33;;;;;;;6.85;5.13;;;9.60;99.90;;;;;;5032512;28;20025;-50
2021/10/18 04:50:59;;;;;;;7.05;4.47;;;9.60;99.90;;;;;;5032557;28;20156;-52
2021/10/18 04:53:25;;;;;;;6.78;4.95;;;9.60;99.90;;;;;;5032606;28;20033;-48
2021/10/18 04:55:50;;;;;;;7.13;4.93;;;9.60;99.90;;;;;;5031263;28;20366;-54
2021/10/18 04:58:16;;;;;;;8.98;5.07;;;9.60;99.90;;;;;;5032547;28;20079;-49
2021/10/18 05:00:47;;;;;;;6.10;4.68;;;9.60;99.90;;;;;;5032471;28;20025;-48
2021/10/18 05:03:13;;;;;;;8.75;4.72;;;9.60;99.90;;;;;;5032535;28;20028;-50
2021/10/18 05:05:40;;;;;;;8.70;3.97;;;9.60;99.90;;;;;;5032362;28;20029;-49
2021/10/18 05:08:10;;;;;;;5.13;4.28;;;9.60;99.90;;;;;;5032369;28;20060;-52
2021/10/18 05:10:38;;;;;;;9.48;4.63;;;9.50;99.90;;;;;;5031070;28;20034;-50
2021/10/18 05:13:05;;;;;;;8.85;4.72;;;9.50;99.90;;;;;;5031103;28;20017;-51
2021/10/18 05:15:31;;;;;;;9.82;4.75;;;9.50;99.90;;;;;;5032343;28;20036;-48
2021/10/18 05:17:56;;;;;;;6.85;4.35;;;9.50;99.90;;;;;;5032263;28;20029;-51
2021/10/18 05:20:22;;;;;;;6.70;4.18;;;9.50;99.90;;;;;;5032218;28;20025;-51
2021/10/18 05:22:48;;;;;;;7.97;4.50;;;9.50;99.90;;;;;;5033262;28;20377;-48
2021/10/18 05:25:14;;;;;;;7.68;4.57;;;9.50;99.90;;;;;;5034804;28;20032;-49
2021/10/18 05:27:40;;;;;;;7.82;4.82;;;9.50;99.90;;;;;;5035968;28;20030;-47
2021/10/18 05:30:08;;;;;;;6.72;3.70;;;9.50;99.90;;;;;;5035873;28;20039;-50
2021/10/18 05:32:34;;;;;;;8.57;4.80;;;9.50;99.90;;;;;;5035943;28;20212;-53
2021/10/18 05:34:59;;;;;;;9.38;5.28;;;9.50;99.90;;;;;;5035764;28;20057;-50
2021/10/18 05:37:25;;;;;;;9.82;4.78;;;9.50;99.90;;;;;;5035797;28;20026;-50
2021/10/18 05:39:50;;;;;;;5.75;4.70;;;9.50;99.90;;;;;;5034706;28;20041;-51
2021/10/18 05:42:17;;;;;;;6.25;4.68;;;9.50;99.90;;;;;;5035781;28;20454;-50
2021/10/18 05:44:43;;;;;;;5.55;4.28;;;9.50;99.90;;;;;;5035641;28;20062;-50
2021/10/18 05:47:09;;;;;;;6.05;4.05;;;9.50;99.90;;;;;;5035564;28;20029;-49
2021/10/18 05:49:35;;;;;;;7.30;4.40;;;9.40;99.90;;;;;;5035461;28;20033;-52
2021/10/18 05:52:02;;;;;;;6.95;3.97;;;9.40;99.90;;;;;;5035846;28;20021;-48
2021/10/18 05:54:27;;;;;;;5.97;4.15;;;9.40;99.90;;;;;;5035078;28;20473;-49
2021/10/18 05:56:53;;;;;;;5.15;3.80;;;9.30;99.90;;;;;;5034599;28;20067;-51
2021/10/18 05:59:19;;;;;;;7.55;4.82;;;9.30;99.90;;;;;;5035412;28;20041;-49
2021/10/18 06:01:45;;;;;;;5.03;4.35;;;9.30;99.90;;;;;;5035282;28;20029;-50
2021/10/18 06:04:10;;;;;;;9.55;4.50;;;9.30;99.90;;;;;;5035270;28;20041;-55
2021/10/18 06:06:36;;;;;;;6.93;4.85;;;9.20;99.90;;;;;;5035126;28;20033;-48
2021/10/18 06:09:06;;;;;;;8.02;4.97;;;9.20;99.90;;;;;;5035201;28;20073;-49
2021/10/18 06:11:33;;;;;;;7.22;4.85;;;9.10;99.90;;;;;;5033943;28;20483;-49
2021/10/18 06:13:59;;;;;;;11.43;4.95;;;9.10;99.90;;;;;;5035051;28;20033;-48
2021/10/18 06:16:24;;;;;;;6.40;4.22;;;9.10;99.90;;;;;;5035011;28;20032;-52
2021/10/18 06:18:50;;;;;;;7.63;3.97;;;9.10;99.90;;;;;;5034962;28;20033;-50
2021/10/18 06:21:16;;;;;;;8.90;4.60;;;9.20;99.90;;;;;;5033786;28;20029;-52
2021/10/18 06:23:43;;;;;;;8.07;4.63;;;9.30;99.90;;;;;;5034948;28;20048;-50
2021/10/18 06:26:12;;;;;;;8.98;4.53;;;9.40;99.90;;;;;;5033685;28;20026;-50
2021/10/18 06:28:38;;;;;;;4.82;3.20;;;9.60;99.90;;;;;;5034828;28;20385;-52
2021/10/18 06:31:04;;;;;;;6.35;3.97;;;9.70;99.90;;;;;;5034984;28;20374;-50
2021/10/18 06:33:29;;;;;;;5.75;3.42;;;9.90;99.90;;;;;;5034806;28;20021;-48
2021/10/18 06:35:55;;;;;;;5.88;3.50;;;10.40;99.90;;;;;;5034090;28;20033;-51
2021/10/18 06:38:22;;;;;;;4.50;3.17;;;11.00;99.90;;;;;;5034787;28;20075;-51
2021/10/18 06:40:48;;;;;;;5.97;2.75;;;12.10;99.90;;;;;;5033260;28;20021;-47
2021/10/18 06:43:15;;;;;;;7.10;3.45;;;12.70;99.90;;;;;;5034531;28;20021;-49
2021/10/18 06:45:41;;;;;;;8.65;3.08;;;12.70;99.90;;;;;;5034448;28;20041;-49
2021/10/18 06:48:08;;;;;;;3.83;2.70;;;12.40;99.90;;;;;;5034453;28;20403;-50
2021/10/18 06:50:35;;;;;;;6.13;3.00;;;12.30;99.90;;;;;;5034806;28;20024;-49
2021/10/18 06:53:01;;;;;;;7.80;3.28;;;12.10;99.90;;;;;;5034417;28;20088;-49
2021/10/18 06:55:27;;;;;;;7.75;3.47;;;12.00;99.90;;;;;;5033019;28;20105;-47
2021/10/18 06:57:55;;;;;;;3.45;2.67;;;11.90;99.90;;;;;;5034253;28;20473;-51
2021/10/18 07:00:21;;;;;;;5.72;2.65;;;11.80;99.90;;;;;;5034178;28;20473;-49
2021/10/18 07:02:46;;;;;;;4.00;2.85;;;11.70;99.90;;;;;;5034414;28;20036;-53
2021/10/18 07:05:12;;;;;;;3.88;2.97;;;11.70;99.90;;;;;;5034154;28;20475;-48
2021/10/18 07:07:37;;;;;;;5.15;3.13;;;11.70;99.90;;;;;;5034134;28;20037;-50
2021/10/18 07:10:06;;;;;;;7.55;3.35;;;11.70;99.90;;;;;;5032631;28;20037;-48
2021/10/18 07:12:34;;;;;;;5.90;3.20;;;11.70;99.90;;;;;;5034043;28;20047;-49
2021/10/18 07:15:00;;;;;;;6.88;3.92;;;11.70;99.90;;;;;;5034026;28;20479;-50
2021/10/18 07:17:27;;;;;;;3.67;2.55;;;11.70;99.90;;;;;;5033944;28;20104;-50
2021/10/18 07:19:54;;;;;;;3.72;2.38;;;11.70;99.90;;;;;;5033872;28;20112;-50
2021/10/18 07:22:24;;;;;;;5.68;3.35;;;11.80;99.90;;;;;;5033869;28;20074;-53
2021/10/18 07:24:50;;;;;;;3.97;2.90;;;11.90;99.90;;;;;;5032482;28;20029;-49
2021/10/18 07:27:16;;;;;;;4.22;2.70;;;12.00;99.90;;;;;;5033839;28;20032;-50
2021/10/18 07:29:42;;;;;;;3.70;2.50;;;12.20;99.90;;;;;;5033540;28;20026;-46
2021/10/18 07:32:07;;;;;;;6.32;3.35;;;12.30;99.90;;;;;;5033612;28;20093;-48
2021/10/18 07:34:33;;;;;;;5.28;2.30;;;12.30;99.90;;;;;;5033651;28;20021;-49
2021/10/18 07:36:58;;;;;;;3.15;2.08;;;12.30;99.90;;;;;;5033571;28;20466;-51
2021/10/18 07:39:25;;;;;;;3.97;2.58;;;12.20;99.90;;;;;;5033593;28;20434;-49
2021/10/18 07:41:52;;;;;;;3.88;2.70;;;12.10;99.90;;;;;;5032639;28;20061;-50
2021/10/18 07:44:19;;;;;;;5.15;2.38;;;12.00;99.90;;;;;;5033373;28;20655;-53
2021/10/18 07:46:45;;;;;;;6.40;3.33;;;12.00;99.90;;;;;;5032642;28;20040;-49
2021/10/18 07:49:12;;;;;;;5.53;3.15;;;12.00;99.90;;;;;;5033294;28;20052;-52
2021/10/18 07:51:38;;;;;;;4.43;2.78;;;12.10;99.90;;;;;;5033328;28;20022;-49
2021/10/18 07:54:04;;;;;;;8.48;2.95;;;12.20;99.90;;;;;;5033231;28;20022;-49
2021/10/18 07:56:30;;;;;;;7.15;2.60;;;12.30;99.90;;;;;;5031944;28;20160;-52
2021/10/18 07:58:56;;;;;;;6.63;2.83;;;12.40;99.90;;;;;;5033051;28;20041;-50
2021/10/18 08:01:22;;;;;;;7.97;3.00;;;12.50;99.90;;;;;;5033221;28;20420;-49
2021/10/18 08:03:48;;;;;;;5.95;3.47;;;12.60;99.90;;;;;;5033137;28;20017;-51
2021/10/18 08:06:13;;;;;;;7.43;2.90;;;12.70;99.90;;;;;;5032995;28;20033;-48
2021/10/18 08:08:44;;;;;;;3.15;2.70;;;12.80;99.90;;;;;;5032883;28;20050;-47
2021/10/18 08:11:11;;;;;;;4.22;2.80;;;12.90;99.90;;;;;;5031598;28;20025;-49
2021/10/18 08:13:36;;;;;;;5.68;3.13;;;12.90;99.90;;;;;;5032920;28;20033;-51
2021/10/18 08:16:02;;;;;;;5.47;3.17;;;13.00;99.90;;;;;;5032848;28;20026;-50
2021/10/18 08:18:27;;;;;;;7.00;3.38;;;13.10;99.90;;;;;;5032918;28;20033;-51
2021/10/18 08:20:53;;;;;;;6.35;2.88;;;13.20;99.90;;;;;;5032901;28;20055;-48
2021/10/18 08:23:18;;;;;;;6.05;3.47;;;13.40;99.90;;;;;;5032813;28;20037;-55
2021/10/18 08:25:44;;;;;;;7.07;3.38;;;13.50;99.90;;;;;;5031582;28;20033;-52
2021/10/18 08:28:10;;;;;;;4.10;2.17;;;13.80;99.90;;;;;;5032738;28;20029;-50
2021/10/18 08:30:35;;;;;;;4.57;2.60;;;14.10;99.90;;;;;;5032732;28;20048;-49
2021/10/18 08:33:01;;;;;;;5.18;2.50;;;14.30;99.90;;;;;;5032780;28;20057;-51
2021/10/18 08:35:27;;;;;;;4.30;2.60;;;14.40;99.90;;;;;;5032775;28;20026;-51
2021/10/18 08:40:44;;;;;;;4.25;2.70;;;14.50;99.90;;;;;;5031314;28;20029;-51
2021/10/18 08:45:41;;;;;;;4.28;1.98;;;14.70;99.90;;;;;;5032791;28;20064;-49
2021/10/18 08:48:09;;;;;;;3.83;2.08;;;14.90;99.90;;;;;;5032790;28;20037;-50
2021/10/18 08:50:35;;;;;;;4.53;2.25;;;15.00;99.90;;;;;;5032630;28;20026;-51
2021/10/18 08:53:00;;;;;;;2.40;2.08;;;15.20;99.90;;;;;;5032465;28;20044;-54
2021/10/18 08:55:26;;;;;;;4.97;2.60;;;15.30;99.90;;;;;;5031334;28;20401;-49
2021/10/18 08:57:51;;;;;;;4.75;2.17;;;15.50;99.90;;;;;;5033731;28;20026;-49
2021/10/18 09:00:41;;;;;;;4.72;2.40;;;15.70;99.90;;;;;;5036520;28;20060;-52
2021/10/18 09:03:28;;;;;;;2.63;2.08;;;15.90;99.90;;;;;;5036437;28;20496;-50
2021/10/18 09:06:15;;;;;;;6.40;2.50;;;15.90;99.90;;;;;;5036460;28;20120;-50
2021/10/18 09:08:49;;;;;;;5.15;2.33;;;16.10;99.90;;;;;;5036209;28;20498;-51
2021/10/18 09:11:20;;;;;;;2.15;1.77;;;16.10;99.90;;;;;;5034907;28;20037;-51
2021/10/18 09:13:51;;;;;;;3.25;2.05;;;16.30;99.90;;;;;;5036356;28;20041;-51
2021/10/18 09:16:22;;;;;;;3.00;2.20;;;16.40;99.90;;;;;;5035823;28;20103;-53
2021/10/18 09:18:57;;;;;;;2.85;2.22;;;16.40;99.90;;;;;;5036049;28;20026;-52
2021/10/18 09:21:35;;;;;;;4.25;2.58;;;16.50;99.90;;;;;;5036111;28;20373;-50
2021/10/18 09:24:02;;;;;;;3.13;2.22;;;16.50;99.90;;;;;;5036067;28;20021;-49
2021/10/18 09:26:28;;;;;;;3.78;1.92;;;16.50;99.90;;;;;;5034737;28;20417;-54
2021/10/18 09:28:55;;;;;;;5.00;2.17;;;16.40;99.90;;;;;;5036025;28;20433;-48
2021/10/18 09:31:21;;;;;;;4.18;1.83;;;16.50;99.90;;;;;;5035920;28;20021;-51
2021/10/18 09:33:57;;;;;;;4.65;1.90;;;16.40;99.90;;;;;;5035913;28;20379;-47
2021/10/18 09:36:29;;;;;;;5.47;1.73;;;16.40;99.90;;;;;;5035870;28;20021;-51
2021/10/18 09:39:22;;;;;;;5.15;2.25;;;16.20;99.90;;;;;;5035744;28;20253;-53
2021/10/18 09:42:02;;;;;;;2.50;2.03;;;16.10;99.90;;;;;;5034909;28;20068;-52
2021/10/18 09:45:23;;;;;;;2.58;1.92;;;16.00;99.90;;;;;;5035641;28;20021;-51
2021/10/18 09:48:22;;;;;;;3.65;1.98;;;16.10;99.90;;;;;;5034355;28;20018;-49
2021/10/18 10:53:28;;;;;;;2.65;2.03;;;16.10;90.30;;;;;;5034467;28;20025;-51
2021/10/18 10:55:56;;;;;;;3.35;1.67;;;16.00;88.20;;;;;;5033134;28;20096;-52
2021/10/18 10:58:37;;;;;;;3.03;1.50;;;16.10;88.30;;;;;;5034246;28;20018;-52
2021/10/18 11:01:04;;;;;;;3.08;1.67;;;16.00;86.10;;;;;;5034549;28;20022;-54
2021/10/18 11:03:36;;;;;;;2.45;1.30;;;16.10;87.70;;;;;;5034187;28;20025;-53
2021/10/18 11:06:05;;;;;;;5.18;1.50;;;16.00;86.00;;;;;;5034218;28;20036;-51
2021/10/18 11:08:39;;;;;;;4.65;1.88;;;16.00;84.40;;;;;;5033887;28;20117;-53
2021/10/18 11:11:12;;;;;;;3.10;1.33;;;16.00;83.70;;;;;;5032752;28;20034;-51
2021/10/18 11:13:50;;;;;;;2.95;1.60;;;16.00;84.20;;;;;;5034030;28;20027;-52
2021/10/18 11:16:18;;;;;;;2.67;1.48;;;16.00;82.30;;;;;;5033938;28;20500;-51
2021/10/18 11:18:47;;;;;;;3.42;1.70;;;16.00;82.20;;;;;;5033922;28;20021;-54
2021/10/18 11:21:22;;;;;;;6.63;1.33;;;16.00;81.70;;;;;;5033606;28;20026;-50
2021/10/18 11:24:06;;;;;;;2.55;1.40;;;15.90;83.10;;;;;;5033822;28;20022;-52
2021/10/18 11:26:36;;;;;;;3.85;1.50;;;16.00;81.00;;;;;;5032540;28;20052;-51
2021/10/18 11:29:12;;;;;;;3.22;1.40;;;16.00;83.00;;;;;;5033716;28;20030;-52
2021/10/18 11:31:43;;;;;;;3.05;1.73;;;16.00;82.60;;;;;;5033629;28;20041;-51
2021/10/18 11:34:10;;;;;;;1.65;1.10;;;16.00;81.30;;;;;;5033808;28;20029;-51
2021/10/18 11:36:47;;;;;;;2.00;1.30;;;16.10;82.40;;;;;;5033655;28;20024;-52
2021/10/18 11:39:23;;;;;;;3.13;1.13;;;16.10;77.30;;;;;;5033587;28;20120;-51
2021/10/18 11:42:09;;;;;;;1.50;1.10;;;16.10;79.20;;;;;;5033417;28;20067;-47
2021/10/18 11:44:48;;;;;;;3.83;1.60;;;16.10;73.40;;;;;;5033427;28;20033;-56
2021/10/18 11:47:23;;;;;;;3.50;1.38;;;16.10;78.40;;;;;;5033481;28;20026;-52
2021/10/18 11:50:07;;;;;;;2.80;1.13;;;16.20;76.70;;;;;;5033370;28;20029;-53
2021/10/18 11:52:34;;;;;;;4.05;1.20;;;16.10;74.40;;;;;;5033243;28;20097;-53
2021/10/18 11:55:00;;;;;;;2.45;1.40;;;16.20;76.20;;;;;;5032101;28;20104;-54
2021/10/18 11:57:29;;;;;;;1.58;0.98;;;16.20;72.10;;;;;;5033202;28;20095;-53
2021/10/18 11:59:55;;;;;;;1.67;1.13;;;16.20;72.60;;;;;;5033375;28;20132;-52
2021/10/18 12:02:21;;;;;;;2.53;1.15;;;16.10;67.00;;;;;;5033203;28;20026;-51
2021/10/18 12:05:00;;;;;;;1.85;1.00;;;16.20;68.30;;;;;;5033150;28;20116;-50
2021/10/18 12:07:52;;;;;;;2.58;1.05;;;16.10;65.40;;;;;;5032984;28;20072;-55
2021/10/18 12:10:26;;;;;;;1.10;0.98;;;16.10;59.90;;;;;;5029708;28;20128;-51
2021/10/18 12:13:28;;;;;;;4.00;1.05;;;16.10;62.30;;;;;;5033113;28;20021;-53
2021/10/18 12:16:02;;;;;;;1.83;0.95;;;16.20;63.20;;;;;;4991486;28;20033;-50
2021/10/18 12:18:34;;;;;;;3.58;1.30;;;16.20;68.70;;;;;;5027132;28;20040;-54
2021/10/18 12:21:07;;;;;;;3.13;2.25;;;16.30;69.30;;;;;;5033012;28;20080;-50
2021/10/18 12:23:36;;;;;;;2.72;1.60;;;16.30;71.00;;;;;;5032941;28;20025;-51
2021/10/18 12:26:10;;;;;;;5.05;1.42;;;16.30;71.00;;;;;;5031663;28;20040;-50
2021/10/18 12:28:40;;;;;;;2.42;1.50;;;16.30;71.90;;;;;;5032837;28;20040;-51
2021/10/18 12:31:23;;;;;;;2.55;1.25;;;16.30;71.90;;;;;;5032817;28;20029;-51
2021/10/18 12:34:18;;;;;;;3.60;1.58;;;16.40;73.70;;;;;;5032296;28;20028;-50
2021/10/18 12:37:00;;;;;;;3.72;1.80;;;16.40;71.60;;;;;;5025413;28;20037;-54
2021/10/18 12:39:33;;;;;;;2.20;1.38;;;16.40;71.80;;;;;;5031517;28;20018;-55
2021/10/18 12:41:59;;;;;;;4.68;1.30;;;16.50;70.90;;;;;;5032738;28;20299;-51
2021/10/18 12:44:45;;;;;;;3.47;1.30;;;16.50;73.80;;;;;;5032677;28;20028;-50
2021/10/18 12:47:15;;;;;;;2.25;1.50;;;16.50;72.20;;;;;;5032698;28;20018;-48
2021/10/18 12:49:41;;;;;;;2.00;1.20;;;16.60;74.40;;;;;;5032521;28;20033;-55
2021/10/18 12:52:08;;;;;;;2.65;0.93;;;16.60;74.80;;;;;;5032608;28;20037;-53
2021/10/18 12:54:44;;;;;;;2.10;1.35;;;16.60;74.20;;;;;;5031343;28;20040;-49
2021/10/18 12:57:12;;;;;;;;;;;16.70;74.20;;;;;;5032998;28;20029;-51
2021/10/18 13:00:08;;;;;;;3.13;1.48;;;16.70;66.50;;;;;;5032891;28;20249;-54
2021/10/18 13:02:36;;;;;;;1.57;1.00;;;16.70;70.60;;;;;;5032636;28;20188;-48
2021/10/18 13:05:12;;;;;;;2.42;1.30;;;16.80;75.00;;;;;;5032837;28;20604;-50
2021/10/18 13:07:44;;;;;;;3.05;1.02;;;16.80;71.80;;;;;;5032214;28;20053;-54
2021/10/18 13:10:13;;;;;;;1.70;1.30;;;16.90;74.10;;;;;;5031147;28;20040;-51
2021/10/18 13:12:39;;;;;;;3.17;1.60;;;16.90;75.10;;;;;;5032427;28;20444;-55
2021/10/18 13:15:06;;;;;;;2.75;1.17;;;17.00;74.20;;;;;;5032497;28;20014;-50
2021/10/18 13:17:32;;;;;;;5.50;1.40;;;17.10;73.80;;;;;;5032426;28;20030;-51
2021/10/18 13:19:57;;;;;;;2.95;1.45;;;17.10;73.10;;;;;;5032434;28;20033;-51
2021/10/18 13:22:23;;;;;;;2.75;1.10;;;17.10;68.30;;;;;;5032366;28;20065;-51
2021/10/18 13:24:50;;;;;;;5.07;1.42;;;17.00;71.60;;;;;;5031149;28;20527;-51
2021/10/18 13:27:16;;;;;;;1.92;1.20;;;17.00;72.70;;;;;;5032381;28;20037;-50
2021/10/18 13:29:41;;;;;;;4.40;1.70;;;16.90;72.20;;;;;;5032225;28;20030;-53
2021/10/18 13:32:07;;;;;;;1.85;1.20;;;16.70;70.40;;;;;;5032344;28;20033;-51
2021/10/18 13:34:34;;;;;;;1.88;1.20;;;16.70;71.20;;;;;;5032382;28;20128;-52
2021/10/18 13:37:01;;;;;;;6.90;1.60;;;16.60;72.90;;;;;;5032247;28;20083;-49
2021/10/18 13:39:27;;;;;;;1.83;1.20;;;16.60;73.70;;;;;;5029704;28;20495;-53
2021/10/18 13:41:53;;;;;;;1.45;0.85;;;16.50;74.20;;;;;;5032262;28;20353;-47
2021/10/18 13:44:19;;;;;;;1.85;1.20;;;16.60;75.20;;;;;;5032391;28;20037;-54
2021/10/18 13:46:45;;;;;;;2.05;1.33;;;16.50;75.30;;;;;;5035719;28;20051;-56
2021/10/18 13:49:10;;;;;;;1.48;1.17;;;16.50;75.40;;;;;;5035782;28;20544;-54
2021/10/18 13:51:36;;;;;;;3.63;1.10;;;16.40;74.10;;;;;;5035639;28;20033;-53
2021/10/18 13:54:02;;;;;;;1.08;0.77;;;16.40;74.40;;;;;;5035639;28;20026;-55
2021/10/18 13:56:28;;;;;;;3.10;1.00;;;16.30;71.60;;;;;;5034295;28;20014;-56
2021/10/18 13:58:53;;;;;;;2.80;1.10;;;16.30;72.70;;;;;;5035483;28;20052;-48
2021/10/18 14:01:19;;;;;;;1.95;1.13;;;16.20;71.50;;;;;;5035437;28;20109;-53
2021/10/18 14:03:45;;;;;;;1.13;1.00;;;16.20;71.70;;;;;;5035368;28;20537;-54